createdAt,value
2019-05-02T00:04:33.019Z,8.60
2019-05-02T00:07:28.678Z,8.60
2019-05-02T00:10:19.919Z,8.50
2019-05-02T00:16:01.781Z,8.40
2019-05-02T00:18:49.772Z,8.30
2019-05-02T00:21:32.803Z,8.30
2019-05-02T00:24:18.352Z,8.20
2019-05-02T00:27:06.443Z,8.20
2019-05-02T00:29:58.642Z,8.10
2019-05-02T00:32:44.548Z,8.10
2019-05-02T00:35:32.557Z,8.10
2019-05-02T00:38:20.551Z,8.10
2019-05-02T00:41:08.544Z,8.10
2019-05-02T00:43:56.554Z,8.10
2019-05-02T00:46:44.609Z,8.10
2019-05-02T00:49:35.434Z,8.10
2019-05-02T00:52:22.403Z,8.10
2019-05-02T00:55:10.360Z,8.10
2019-05-02T00:57:58.333Z,8.10
2019-05-02T01:06:59.798Z,8.10
2019-05-02T01:09:48.071Z,8.10
2019-05-02T01:12:39.976Z,8.10
2019-05-02T01:15:25.808Z,8.10
2019-05-02T01:17:54.512Z,8.00
2019-05-02T01:20:27.420Z,8.10
2019-05-02T01:22:54.243Z,8.20
2019-05-02T01:25:42.388Z,8.10
2019-05-02T01:28:54.096Z,8.10
2019-05-02T01:31:58.267Z,8.00
2019-05-02T01:35:05.305Z,7.80
2019-05-02T01:38:12.344Z,7.80
2019-05-02T01:41:00.427Z,7.80
2019-05-02T01:43:48.408Z,7.80
2019-05-02T01:46:36.866Z,7.80
2019-05-02T01:49:24.876Z,7.80
2019-05-02T01:52:12.950Z,7.90
2019-05-02T01:55:00.948Z,7.80
2019-05-02T01:57:48.957Z,7.80
2019-05-02T02:00:40.937Z,7.80
2019-05-02T02:03:27.018Z,7.70
2019-05-02T02:06:15.127Z,7.90
2019-05-02T02:09:07.775Z,7.80
2019-05-02T02:11:52.979Z,7.80
2019-05-02T02:14:40.982Z,7.80
2019-05-02T02:17:29.325Z,7.80
2019-05-02T02:20:14.077Z,7.90
2019-05-02T02:26:00.950Z,7.90
2019-05-02T02:28:48.941Z,7.80
2019-05-02T02:31:39.523Z,7.80
2019-05-02T02:34:32.347Z,7.90
2019-05-02T02:37:16.511Z,7.90
2019-05-02T02:40:04.744Z,7.90
2019-05-02T02:42:52.782Z,7.90
2019-05-02T02:48:55.234Z,8.00
2019-05-02T02:51:43.188Z,8.10
2019-05-02T02:54:36.514Z,8.00
2019-05-02T02:57:26.271Z,8.00
2019-05-02T03:00:11.232Z,7.90
2019-05-02T03:03:00.374Z,8.00
2019-05-02T03:05:48.465Z,7.90
2019-05-02T03:08:44.578Z,8.00
2019-05-02T03:17:31.587Z,8.10
2019-05-02T03:20:12.564Z,8.20
2019-05-02T03:22:51.106Z,8.10
2019-05-02T03:25:50.687Z,8.10
2019-05-02T03:28:28.866Z,8.10
2019-05-02T03:31:29.816Z,8.10
2019-05-02T03:34:06.596Z,8.10
2019-05-02T03:36:54.666Z,8.10
2019-05-02T03:39:49.238Z,8.10
2019-05-02T03:42:43.754Z,8.20
2019-05-02T03:45:22.226Z,8.30
2019-05-02T03:48:10.226Z,8.40
2019-05-02T03:50:58.248Z,8.40
2019-05-02T03:53:46.280Z,8.40
2019-05-02T03:56:34.274Z,8.40
2019-05-02T03:59:22.250Z,8.40
2019-05-02T04:02:14.049Z,8.40
2019-05-02T04:05:01.132Z,8.40
2019-05-02T04:07:49.747Z,8.50
2019-05-02T04:10:59.386Z,8.40
2019-05-02T04:13:46.744Z,8.40
2019-05-02T04:16:34.771Z,8.40
2019-05-02T04:19:28.750Z,8.40
2019-05-02T04:22:08.953Z,8.50
2019-05-02T04:24:56.422Z,8.40
2019-05-02T04:27:42.995Z,8.40
2019-05-02T04:30:30.969Z,8.40
2019-05-02T04:33:19.005Z,8.30
2019-05-02T04:36:14.244Z,8.40
2019-05-02T04:38:59.466Z,8.50
2019-05-02T04:41:48.550Z,8.50
2019-05-02T04:44:46.374Z,8.50
2019-05-02T04:47:28.836Z,8.50
2019-05-02T04:50:18.508Z,8.50
2019-05-02T04:53:08.382Z,8.60
2019-05-02T04:59:17.856Z,8.60
2019-05-02T05:02:01.285Z,8.50
2019-05-02T05:04:49.488Z,8.40
2019-05-02T05:07:43.819Z,8.50
2019-05-02T05:10:28.250Z,8.60
2019-05-02T05:13:21.605Z,8.70
2019-05-02T05:16:08.150Z,8.70
2019-05-02T05:18:57.857Z,8.70
2019-05-02T05:21:38.739Z,8.70
2019-05-02T05:27:21.213Z,8.60
2019-05-02T05:30:11.356Z,8.60
2019-05-02T05:32:55.694Z,8.50
2019-05-02T05:35:48.746Z,8.40
2019-05-02T05:38:36.023Z,8.50
2019-05-02T05:41:23.555Z,8.60
2019-05-02T05:44:11.822Z,8.60
2019-05-02T05:46:42.474Z,8.60
2019-05-02T05:49:30.507Z,8.50
2019-05-02T05:52:02.233Z,8.50
2019-05-02T05:54:49.070Z,8.50
2019-05-02T06:00:33.360Z,8.70
2019-05-02T06:11:50.670Z,8.90
2019-05-02T06:16:36.456Z,9.00
2019-05-02T06:19:24.592Z,9.00
2019-05-02T06:22:05.128Z,9.00
2019-05-02T06:24:46.248Z,9.00
2019-05-02T06:27:33.839Z,9.10
2019-05-02T06:30:40.890Z,9.00
2019-05-02T06:33:30.457Z,9.00
2019-05-02T06:36:18.792Z,9.00
2019-05-02T06:39:06.842Z,9.00
2019-05-02T06:41:57.547Z,9.10
2019-05-02T06:44:44.523Z,9.10
2019-05-02T06:47:35.889Z,8.90
2019-05-02T06:50:24.768Z,8.90
2019-05-02T06:53:12.032Z,9.00
2019-05-02T06:56:00.088Z,9.20
2019-05-02T06:58:48.170Z,9.30
2019-05-02T07:01:36.442Z,9.40
2019-05-02T07:04:25.031Z,9.60
2019-05-02T07:07:14.269Z,9.70
2019-05-02T07:10:02.506Z,9.60
2019-05-02T07:12:51.197Z,9.40
2019-05-02T07:15:59.053Z,9.40
2019-05-02T07:22:04.065Z,9.80
2019-05-02T07:24:39.894Z,9.90
2019-05-02T07:27:33.114Z,10.00
2019-05-02T07:33:26.926Z,9.80
2019-05-02T07:36:15.024Z,9.70
2019-05-02T07:42:00.630Z,9.90
2019-05-02T07:44:47.672Z,10.00
2019-05-02T07:47:40.315Z,10.10
2019-05-02T07:50:25.586Z,10.10
2019-05-02T07:53:14.359Z,10.10
2019-05-02T07:56:03.322Z,10.60
2019-05-02T07:58:51.325Z,10.60
2019-05-02T08:01:39.294Z,10.60
2019-05-02T08:04:27.307Z,10.50
2019-05-02T08:07:16.326Z,10.40
2019-05-02T08:10:05.133Z,10.40
2019-05-02T08:15:50.777Z,10.50
2019-05-02T08:18:36.716Z,10.50
2019-05-02T08:21:27.262Z,10.80
2019-05-02T08:24:14.433Z,10.90
2019-05-02T08:27:23.134Z,11.10
2019-05-02T08:33:29.480Z,10.80
2019-05-02T08:39:08.470Z,11.20
2019-05-02T08:41:57.896Z,11.00
2019-05-02T08:44:51.226Z,11.40
2019-05-02T08:47:36.142Z,11.60
2019-05-02T08:50:27.253Z,11.60
2019-05-02T08:53:19.847Z,11.30
2019-05-02T08:56:04.523Z,11.20
2019-05-02T08:58:52.513Z,11.20
2019-05-02T09:01:40.518Z,11.70
2019-05-02T09:04:29.242Z,11.90
2019-05-02T09:07:18.277Z,11.80
2019-05-02T09:10:08.243Z,11.80
2019-05-02T09:12:56.275Z,11.80
2019-05-02T09:15:49.644Z,11.80
2019-05-02T09:18:38.237Z,12.10
2019-05-02T09:21:26.745Z,12.00
2019-05-02T09:24:08.466Z,12.20
2019-05-02T09:26:46.466Z,12.20
2019-05-02T09:29:37.296Z,12.00
2019-05-02T09:32:26.278Z,12.10
2019-05-02T09:35:14.087Z,12.40
2019-05-02T09:38:02.087Z,12.60
2019-05-02T09:40:54.548Z,12.20
2019-05-02T09:43:39.863Z,12.10
2019-05-02T09:46:28.237Z,12.00
2019-05-02T09:49:16.645Z,12.20
2019-05-02T09:52:06.077Z,12.20
2019-05-02T09:55:16.757Z,12.20
2019-05-02T09:58:05.231Z,12.30
2019-05-02T10:01:12.209Z,12.50
2019-05-02T10:04:03.558Z,12.70
2019-05-02T10:06:32.146Z,12.70
2019-05-02T10:09:24.240Z,12.60
2019-05-02T10:12:12.304Z,12.80
2019-05-02T10:14:42.135Z,13.00
2019-05-02T10:23:19.542Z,13.60
2019-05-02T10:25:46.952Z,13.90
2019-05-02T10:28:35.303Z,14.00
2019-05-02T10:31:27.575Z,14.00
2019-05-02T10:34:16.345Z,14.30
2019-05-02T10:37:03.260Z,14.20
2019-05-02T10:39:52.531Z,14.10
2019-05-02T10:42:41.924Z,14.20
2019-05-02T10:54:33.716Z,14.40
2019-05-02T10:57:21.955Z,14.50
2019-05-02T11:03:47.447Z,14.60
2019-05-02T11:06:15.932Z,14.70
2019-05-02T11:09:06.527Z,15.00
2019-05-02T11:11:54.938Z,15.30
2019-05-02T11:15:02.339Z,15.30
2019-05-02T11:17:52.733Z,15.40
2019-05-02T11:20:42.087Z,15.60
2019-05-02T11:23:12.721Z,15.60
2019-05-02T11:25:52.655Z,15.60
2019-05-02T11:28:32.369Z,15.80
2019-05-02T11:31:02.645Z,15.50
2019-05-02T11:33:32.533Z,15.50
2019-05-02T11:36:22.348Z,15.80
2019-05-02T11:39:18.696Z,16.10
2019-05-02T11:42:02.101Z,15.90
2019-05-02T11:44:52.268Z,15.90
2019-05-02T11:47:42.153Z,16.00
2019-05-02T11:50:31.975Z,16.00
2019-05-02T11:53:28.838Z,16.30
2019-05-02T11:56:28.659Z,16.20
2019-05-02T12:02:25.333Z,16.10
2019-05-02T12:05:35.678Z,16.50
2019-05-02T12:08:22.759Z,16.60
2019-05-02T12:11:16.438Z,16.30
2019-05-02T12:14:01.731Z,16.40
2019-05-02T12:16:32.280Z,16.60
2019-05-02T12:19:22.834Z,16.70
2019-05-02T12:22:12.930Z,16.80
2019-05-02T12:24:45.326Z,16.60
2019-05-02T12:27:23.128Z,16.40
2019-05-02T12:30:11.833Z,16.30
2019-05-02T12:33:02.501Z,16.50
2019-05-02T12:35:52.542Z,16.20
2019-05-02T12:38:42.025Z,16.00
2019-05-02T12:41:30.215Z,16.10
2019-05-02T12:44:37.319Z,15.90
2019-05-02T12:47:26.171Z,16.00
2019-05-02T12:50:14.485Z,16.60
2019-05-02T12:53:03.042Z,17.00
2019-05-02T12:55:52.703Z,17.30
2019-05-02T12:58:42.137Z,17.30
2019-05-02T13:01:32.970Z,17.40
2019-05-02T13:04:22.814Z,17.60
2019-05-02T13:07:12.650Z,17.20
2019-05-02T13:10:02.435Z,16.80
2019-05-02T13:12:50.422Z,16.70
2019-05-02T13:15:38.606Z,16.50
2019-05-02T13:18:29.259Z,16.60
2019-05-02T13:27:12.649Z,16.20
2019-05-02T13:29:53.599Z,16.20
2019-05-02T13:32:57.717Z,16.30
2019-05-02T13:35:42.053Z,16.10
2019-05-02T13:38:22.722Z,15.90
2019-05-02T13:41:02.647Z,15.70
2019-05-02T13:47:00.212Z,15.60
2019-05-02T13:49:54.059Z,15.60
2019-05-02T13:52:38.403Z,15.50
2019-05-02T13:55:08.316Z,14.80
2019-05-02T13:57:45.340Z,14.20
2019-05-02T14:13:04.479Z,13.40
2019-05-02T14:16:14.399Z,13.20
2019-05-02T14:19:03.050Z,13.30
2019-05-02T14:21:51.901Z,13.10
2019-05-02T14:24:42.200Z,13.00
2019-05-02T14:27:32.185Z,12.90
2019-05-02T14:36:27.637Z,12.80
2019-05-02T14:39:35.578Z,12.80
2019-05-02T14:42:26.140Z,12.70
2019-05-02T14:45:27.230Z,12.70
2019-05-02T14:48:17.934Z,12.70
2019-05-02T14:50:53.636Z,12.70
2019-05-02T14:53:42.996Z,12.70
2019-05-02T14:56:52.194Z,12.60
2019-05-02T14:59:42.714Z,12.70
2019-05-02T15:02:50.033Z,12.70
2019-05-02T15:05:59.018Z,12.70
2019-05-02T15:08:48.293Z,12.80
2019-05-02T15:14:32.951Z,12.70
2019-05-02T15:17:22.710Z,12.70
2019-05-02T15:20:13.019Z,12.60
2019-05-02T15:23:02.569Z,12.60
2019-05-02T15:25:52.569Z,12.60
2019-05-02T15:28:39.588Z,12.50
2019-05-02T15:35:06.051Z,12.40
2019-05-02T15:37:56.601Z,12.40
2019-05-02T15:40:53.508Z,12.40
2019-05-02T15:43:44.500Z,12.40
2019-05-02T15:56:02.806Z,12.20
2019-05-02T15:58:52.207Z,12.10
2019-05-02T16:05:05.484Z,12.10
2019-05-02T16:08:05.443Z,12.00
2019-05-02T16:10:45.239Z,12.10
2019-05-02T16:14:10.553Z,12.10
2019-05-02T16:17:42.196Z,12.00
2019-05-02T16:20:49.308Z,12.10
2019-05-02T16:23:37.991Z,12.20
2019-05-02T16:26:26.377Z,12.10
2019-05-02T16:29:19.513Z,12.20
2019-05-02T16:32:23.899Z,12.10
2019-05-02T16:35:17.262Z,12.00
2019-05-02T16:37:46.758Z,12.00
2019-05-02T16:40:34.849Z,12.00
2019-05-02T16:46:35.974Z,11.90
2019-05-02T16:49:24.457Z,11.90
2019-05-02T16:52:38.118Z,11.90
2019-05-02T16:55:05.213Z,11.90
2019-05-02T16:57:35.176Z,11.90
2019-05-02T17:00:25.566Z,11.90
2019-05-02T17:03:17.428Z,12.00
2019-05-02T17:06:03.868Z,12.00
2019-05-02T17:09:11.935Z,12.20
2019-05-02T17:12:02.028Z,12.40
2019-05-02T17:15:13.704Z,12.80
2019-05-02T17:18:22.791Z,12.70
2019-05-02T17:21:12.660Z,12.30
2019-05-02T17:26:38.938Z,12.20
2019-05-02T17:29:27.694Z,12.00
2019-05-02T17:32:16.683Z,12.10
2019-05-02T17:35:25.744Z,12.00
2019-05-02T17:37:54.757Z,12.00
2019-05-02T17:40:43.050Z,12.00
2019-05-02T17:43:37.456Z,12.00
2019-05-02T17:46:26.098Z,12.00
2019-05-02T17:49:14.279Z,11.90
2019-05-02T17:52:26.720Z,11.90
2019-05-02T17:55:12.179Z,11.90
2019-05-02T17:58:04.601Z,12.00
2019-05-02T18:00:56.045Z,11.90
2019-05-02T18:03:24.075Z,11.90
2019-05-02T18:06:17.164Z,11.90
2019-05-02T18:09:02.560Z,11.80
2019-05-02T18:11:51.778Z,11.90
2019-05-02T18:14:42.156Z,11.80
2019-05-02T18:17:31.779Z,11.80
2019-05-02T18:20:21.961Z,11.80
2019-05-02T18:23:12.276Z,11.80
2019-05-02T18:25:52.735Z,11.70
2019-05-02T18:28:49.355Z,11.70
2019-05-02T18:31:39.616Z,11.60
2019-05-02T18:37:58.033Z,11.60
2019-05-02T18:40:36.289Z,11.60
2019-05-02T18:43:24.747Z,11.60
2019-05-02T18:46:13.083Z,11.50
2019-05-02T18:52:02.429Z,11.50
2019-05-02T18:54:51.752Z,11.50
2019-05-02T18:57:42.337Z,11.50
2019-05-02T19:00:36.169Z,11.40
2019-05-02T19:03:23.102Z,11.40
2019-05-02T19:06:11.751Z,11.40
2019-05-02T19:09:22.834Z,11.40
2019-05-02T19:15:07.171Z,11.40
2019-05-02T19:17:55.885Z,11.40
2019-05-02T19:21:03.502Z,11.40
2019-05-02T19:23:59.404Z,11.40
2019-05-02T19:26:41.661Z,11.30
2019-05-02T19:29:32.078Z,11.30
2019-05-02T19:32:12.306Z,11.30
2019-05-02T19:35:05.421Z,11.30
2019-05-02T19:37:52.480Z,11.30
2019-05-02T19:41:05.490Z,11.20
2019-05-02T19:43:53.413Z,11.20
2019-05-02T19:46:42.717Z,11.10
2019-05-02T19:53:37.958Z,11.10
2019-05-02T20:00:05.269Z,11.10
2019-05-02T20:02:25.991Z,11.00
2019-05-02T20:05:16.517Z,11.00
2019-05-02T20:08:04.600Z,11.00
2019-05-02T20:11:05.343Z,10.90
2019-05-02T20:17:19.952Z,10.80
2019-05-02T20:23:15.597Z,10.70
2019-05-02T20:29:04.357Z,10.60
2019-05-02T20:31:51.596Z,10.50
2019-05-02T20:34:36.828Z,10.50
2019-05-02T20:37:19.523Z,10.40
2019-05-02T20:40:02.965Z,10.40
2019-05-02T20:42:45.231Z,10.30
2019-05-02T20:45:25.761Z,10.30
2019-05-02T20:48:06.932Z,10.30
2019-05-02T20:50:55.135Z,10.30
2019-05-02T20:53:43.547Z,10.30
2019-05-02T20:56:52.009Z,10.20
2019-05-02T20:59:41.742Z,10.10
2019-05-02T21:02:31.875Z,10.10
2019-05-02T21:18:34.107Z,10.10
2019-05-02T21:21:26.399Z,10.00
2019-05-02T21:27:26.510Z,10.00
2019-05-02T21:30:18.061Z,9.90
2019-05-02T21:32:57.048Z,9.90
2019-05-02T21:35:55.600Z,9.90
2019-05-02T21:39:14.860Z,9.90
2019-05-02T21:44:42.219Z,9.80
2019-05-02T21:47:31.966Z,9.90
2019-05-02T21:53:28.023Z,9.90
2019-05-02T21:59:18.285Z,9.90
2019-05-02T22:08:17.548Z,9.70
2019-05-02T22:11:05.599Z,9.60
2019-05-02T22:13:53.709Z,9.60
2019-05-02T22:16:42.124Z,9.70
2019-05-02T22:19:32.331Z,9.60
2019-05-02T22:22:22.854Z,9.60
2019-05-02T22:25:11.613Z,9.70
2019-05-02T22:27:53.874Z,9.60
2019-05-02T22:30:33.967Z,9.60
2019-05-02T22:33:14.797Z,9.50
2019-05-02T22:35:53.691Z,9.40
2019-05-02T22:39:02.072Z,9.40
2019-05-02T22:41:52.476Z,9.40
2019-05-02T22:47:34.242Z,9.30
2019-05-02T22:50:02.925Z,9.30
2019-05-02T22:52:52.240Z,9.30
2019-05-02T22:55:42.453Z,9.30
2019-05-02T22:58:30.883Z,9.30
2019-05-02T23:01:21.625Z,9.30
2019-05-02T23:04:10.000Z,9.30
2019-05-02T23:06:58.055Z,9.30
2019-05-02T23:09:46.357Z,9.30
2019-05-02T23:12:34.400Z,9.20
2019-05-02T23:18:15.950Z,9.20
2019-05-02T23:21:03.958Z,9.20
2019-05-02T23:23:52.383Z,9.20
2019-05-02T23:27:00.891Z,9.20
2019-05-02T23:29:48.929Z,9.20
2019-05-02T23:32:37.004Z,9.20
2019-05-02T23:35:25.008Z,9.20
2019-05-02T23:38:04.068Z,9.10
2019-05-02T23:40:52.625Z,9.10
2019-05-02T23:43:41.983Z,9.20
2019-05-02T23:46:29.959Z,9.00
2019-05-02T23:49:18.016Z,9.10
2019-05-02T23:52:06.020Z,9.00
2019-05-02T23:54:54.004Z,8.90
2019-05-02T23:57:42.230Z,8.90
